CMA CGM Herodote — MFEP — position and weather

sailwx.info

Track history (hours):
 
Tides and Currents Weather Stations Pressure Air Temp Water Temp Dewpoint Dewpoint Depression Visibility Wind Speed Wind Dir Waves Ship Positions

CMA CGM Herodote

Last reported at 2015-Mar-29 23:16 UTC. Time now 2015-Mar-29 23:49 UTC.
Position N 35°00' W 033°16'.

Length 170 m; draft 9.3 m.

Type: Ship (hazmat cat A). MMSI: 235051085.

Date/timePositionNaut miles runAvg speedWind from/ knotsBaromVisibWave heightAir tempDewpointWater temp
2015-Mar-29 23:16N 35°00' W 033°16'1317.6
2015-Mar-29 22:33N 35°07' W 033°03'1817.6
2015-Mar-29 21:30N 35°17' W 032°44'16518.0
2015-Mar-29 12:22N 36°47' W 029°53'5318.5
2015-Mar-29 09:31N 37°16' W 028°57'1818.5
2015-Mar-29 08:33N 37°25' W 028°38'1918.5
2015-Mar-29 07:33N 37°35' W 028°19'1918.6
2015-Mar-29 06:33N 37°45' W 027°59'1918.7
2015-Mar-29 05:34N 37°55' W 027°39'1918.5
2015-Mar-29 04:33N 38°05' W 027°19'1918.7
2015-Mar-29 03:33N 38°15' W 026°59'1918.6
2015-Mar-29 02:34N 38°26' W 026°40'1918.6
2015-Mar-29 01:34N 38°36' W 026°20'1918.6
2015-Mar-29 00:33N 38°47' W 026°00'1818.4
2015-Mar-28 23:33N 38°57' W 025°41'2118.6
2015-Mar-28 22:26N 39°09' W 025°19'1718.3
2015-Mar-28 21:30N 39°18' W 025°00'  
2015-Mar-26 12:33N 48°53' W 005°50'18516.3
2015-Mar-26 01:13N 49°51' W 001°19'1615.2
2015-Mar-26 00:08N 49°45' W 000°56'915.5
2015-Mar-25 23:34N 49°41' W 000°43'1515.4
2015-Mar-25 22:34N 49°35' W 000°21'1514.9
2015-Mar-25 21:34N 49°30' E 000°00'7 6.5
2015-Mar-25 20:32N 49°29' E 000°10'0 0.0
2015-Mar-25 19:32N 49°29' E 000°10'0 0.0
2015-Mar-25 18:32N 49°29' E 000°10'0 0.0
2015-Mar-25 17:32N 49°29' E 000°10'0 0.0
2015-Mar-25 16:32N 49°29' E 000°10'0 0.0
2015-Mar-25 15:32N 49°29' E 000°10'0 0.0
2015-Mar-25 14:32N 49°29' E 000°10'0 0.0
2015-Mar-25 13:32N 49°29' E 000°10'0 0.0
2015-Mar-25 12:32N 49°29' E 000°10'0 0.0
2015-Mar-25 11:32N 49°29' E 000°10'0 0.0
2015-Mar-25 10:32N 49°29' E 000°10'0 0.0
2015-Mar-25 09:29N 49°29' E 000°10'0 0.0
2015-Mar-25 08:32N 49°29' E 000°10'0 0.0
2015-Mar-25 07:32N 49°29' E 000°10'0 0.0
2015-Mar-25 06:32N 49°29' E 000°10'0 0.0
2015-Mar-25 05:29N 49°29' E 000°10'0 0.0
2015-Mar-25 04:32N 49°29' E 000°10'0 0.0
2015-Mar-25 03:32N 49°29' E 000°10'0 0.0
2015-Mar-25 02:32N 49°29' E 000°10'0 0.0
2015-Mar-25 01:32N 49°29' E 000°10'0 0.0
2015-Mar-25 00:32N 49°29' E 000°10'0 0.0
2015-Mar-24 23:32N 49°29' E 000°10'0 0.0
2015-Mar-24 22:32N 49°29' E 000°10'0 0.0
2015-Mar-24 21:32N 49°29' E 000°10'1 1.3
2015-Mar-24 20:33N 49°28' E 000°08'7 6.7
2015-Mar-24 19:32N 49°29' W 000°02'0 0.0
2015-Mar-24 18:32N 49°29' W 000°02'0 0.0
2015-Mar-24 17:32N 49°29' W 000°02'0 0.0
2015-Mar-24 16:32N 49°29' W 000°02'0 0.1
2015-Mar-24 15:32N 49°29' W 000°02'0 0.1
2015-Mar-24 14:32N 49°29' W 000°02'0 0.1
2015-Mar-24 13:32N 49°29' W 000°02'0 0.0
2015-Mar-24 12:32N 49°29' W 000°02'0 0.0
2015-Mar-24 11:32N 49°29' W 000°02'0 0.2
2015-Mar-24 10:32N 49°29' W 000°02'0 0.0
2015-Mar-24 09:32N 49°29' W 000°02'0 0.1
2015-Mar-24 08:32N 49°29' W 000°02'0 0.2
2015-Mar-24 07:34N 49°29' W 000°02'10 9.9
2015-Mar-24 06:34N 49°37' W 000°12'1111.1
2015-Mar-24 05:33N 49°48' W 000°12'3411.2
2015-Mar-24 02:32N 50°22' W 000°07'20 9.9
2015-Mar-24 00:33N 50°32' E 000°19'9 9.1
2015-Mar-23 23:34N 50°35' E 000°33'9 9.1
2015-Mar-23 22:34N 50°41' E 000°44'1110.8
2015-Mar-23 21:33N 50°48' E 000°57'1412.7
2015-Mar-23 20:25N 50°57' E 001°14'1112.9
2015-Mar-23 19:33N 51°04' E 001°29'1111.2
2015-Mar-23 18:34N 51°12' E 001°41'9 9.0
2015-Mar-23 17:33N 51°19' E 001°50'9 8.7
2015-Mar-23 16:34N 51°26' E 001°58'8 8.3
2015-Mar-23 15:34N 51°32' E 002°06'9 8.6
2015-Mar-23 14:31N 51°39' E 002°15'2610.5
2015-Mar-23 12:03N 51°59' E 002°42'810.7
2015-Mar-23 11:16N 52°02' E 002°55'911.2
2015-Mar-23 10:26N 52°03' E 003°10'1211.3
2015-Mar-23 09:23N 52°03' E 003°29'911.0
2015-Mar-23 08:33N 52°03' E 003°44'9 9.5
2015-Mar-23 07:33N 52°01' E 003°59'1212.0
2015-Mar-23 06:33N 51°54' E 004°16'6 5.5
2015-Mar-23 05:33N 51°53' E 004°24'0 0.0
2015-Mar-23 04:33N 51°53' E 004°24'0 0.0
2015-Mar-23 03:33N 51°53' E 004°24'0 0.0
2015-Mar-23 02:33N 51°53' E 004°24'0 0.0
2015-Mar-23 01:30N 51°53' E 004°24'0 0.0
2015-Mar-23 00:33N 51°53' E 004°24'0 0.0
2015-Mar-22 23:33N 51°53' E 004°24'0 0.0
2015-Mar-22 22:33N 51°53' E 004°24'0 0.0
2015-Mar-22 21:30N 51°53' E 004°24'0 0.0
2015-Mar-22 20:33N 51°53' E 004°24'0 0.0
2015-Mar-22 19:33N 51°53' E 004°24'0 0.0
2015-Mar-22 18:33N 51°53' E 004°24'0 0.0
2015-Mar-22 17:33N 51°53' E 004°24'0 0.0
2015-Mar-22 16:33N 51°53' E 004°24'0 0.0
2015-Mar-22 15:30N 51°53' E 004°24'0 0.0
2015-Mar-22 14:33N 51°53' E 004°24'0 0.0
2015-Mar-22 13:33N 51°53' E 004°24'0 0.0
2015-Mar-22 12:33N 51°53' E 004°24'0 0.0
2015-Mar-22 11:33N 51°53' E 004°24'0 0.0
2015-Mar-22 10:30N 51°53' E 004°24'0 0.0
2015-Mar-22 09:33N 51°53' E 004°24'0 0.0
2015-Mar-22 08:33N 51°53' E 004°24'0 0.0
2015-Mar-22 07:33N 51°53' E 004°24'0 0.0
2015-Mar-22 06:33N 51°53' E 004°24'0 0.0
2015-Mar-22 05:33N 51°53' E 004°24'0 0.0
2015-Mar-22 04:33N 51°53' E 004°24'2 2.4
2015-Mar-22 03:33N 51°54' E 004°21'1110.8
2015-Mar-22 02:33N 51°59' E 004°06'1110.7
2015-Mar-22 01:33N 52°00' E 003°48'1412.0
2015-Mar-22 00:24N 51°56' E 003°27'5013.0
2015-Mar-21 20:33N 51°52' E 002°06'1313.0
2015-Mar-21 19:33N 51°49' E 001°46'8 8.0
2015-Mar-21 18:33N 51°47' E 001°33'1716.9
2015-Mar-21 17:33N 51°35' E 001°15'1818.0
2015-Mar-21 16:33N 51°29' E 000°47'1515.2
2015-Mar-21 15:33N 51°27' E 000°23'2 1.9
2015-Mar-21 14:33N 51°27' E 000°20'0 0.0
2015-Mar-21 13:32N 51°27' E 000°20'0 0.0
2015-Mar-21 12:34N 51°27' E 000°20'0 0.0
2015-Mar-21 11:32N 51°27' E 000°20'0 0.0
2015-Mar-21 10:33N 51°27' E 000°20'0 0.0
2015-Mar-21 09:33N 51°27' E 000°20'0 0.0
2015-Mar-21 08:33N 51°27' E 000°20'0 0.0
2015-Mar-21 07:33N 51°27' E 000°20'0 0.0
2015-Mar-21 06:33N 51°27' E 000°20'0 0.0
2015-Mar-21 05:34N 51°27' E 000°20'0 0.0
2015-Mar-21 04:33N 51°27' E 000°20'0 0.0
2015-Mar-21 03:33N 51°27' E 000°20'1 1.3
2015-Mar-21 02:34N 51°27' E 000°22'8 7.9
2015-Mar-21 01:33N 51°30' E 000°34'1313.0
2015-Mar-21 00:33N 51°29' E 000°54'1414.1
2015-Mar-20 23:33N 51°29' E 001°17'1111.2
2015-Mar-20 22:34N 51°24' E 001°33'10 9.6
2015-Mar-20 21:34N 51°14' E 001°37'9 9.0
2015-Mar-20 20:34N 51°05' E 001°39'1110.8
2015-Mar-20 19:33N 50°57' E 001°27'1210.7
2015-Mar-20 18:29N 50°47' E 001°21'1010.6
2015-Mar-20 17:33N 50°38' E 001°13'1211.5
2015-Mar-20 16:32N 50°31' E 000°58'1511.6
2015-Mar-20 15:14N 50°27' E 000°35'811.7
2015-Mar-20 14:32N 50°25' E 000°23'  
Track history (hours):
 
Tides and Currents Weather Stations Pressure Air Temp Water Temp Dewpoint Dewpoint Depression Visibility Wind Speed Wind Dir Waves Ship Positions

CMA CGM Herodote

Last reported at 2015-Mar-29 23:16 UTC. Time now 2015-Mar-29 23:49 UTC.
Position N 35°00' W 033°16'.

Length 170 m; draft 9.3 m.

Type: Ship (hazmat cat A). MMSI: 235051085.

Date/timePositionNaut miles runAvg speedWind from/ knotsBaromVisibWave heightAir tempDewpointWater temp
2015-Mar-29 23:16N 35°00' W 033°16'1317.6
2015-Mar-29 22:33N 35°07' W 033°03'1817.6
2015-Mar-29 21:30N 35°17' W 032°44'16518.0
2015-Mar-29 12:22N 36°47' W 029°53'5318.5
2015-Mar-29 09:31N 37°16' W 028°57'1818.5
2015-Mar-29 08:33N 37°25' W 028°38'1918.5
2015-Mar-29 07:33N 37°35' W 028°19'1918.6
2015-Mar-29 06:33N 37°45' W 027°59'1918.7
2015-Mar-29 05:34N 37°55' W 027°39'1918.5
2015-Mar-29 04:33N 38°05' W 027°19'1918.7
2015-Mar-29 03:33N 38°15' W 026°59'1918.6
2015-Mar-29 02:34N 38°26' W 026°40'1918.6
2015-Mar-29 01:34N 38°36' W 026°20'1918.6
2015-Mar-29 00:33N 38°47' W 026°00'1818.4
2015-Mar-28 23:33N 38°57' W 025°41'2118.6
2015-Mar-28 22:26N 39°09' W 025°19'1718.3
2015-Mar-28 21:30N 39°18' W 025°00'  
2015-Mar-26 12:33N 48°53' W 005°50'18516.3
2015-Mar-26 01:13N 49°51' W 001°19'1615.2
2015-Mar-26 00:08N 49°45' W 000°56'915.5
2015-Mar-25 23:34N 49°41' W 000°43'1515.4
2015-Mar-25 22:34N 49°35' W 000°21'1514.9
2015-Mar-25 21:34N 49°30' E 000°00'7 6.5
2015-Mar-25 20:32N 49°29' E 000°10'0 0.0
2015-Mar-25 19:32N 49°29' E 000°10'0 0.0
2015-Mar-25 18:32N 49°29' E 000°10'0 0.0
2015-Mar-25 17:32N 49°29' E 000°10'0 0.0
2015-Mar-25 16:32N 49°29' E 000°10'0 0.0
2015-Mar-25 15:32N 49°29' E 000°10'0 0.0
2015-Mar-25 14:32N 49°29' E 000°10'0 0.0
2015-Mar-25 13:32N 49°29' E 000°10'0 0.0
2015-Mar-25 12:32N 49°29' E 000°10'0 0.0
2015-Mar-25 11:32N 49°29' E 000°10'0 0.0
2015-Mar-25 10:32N 49°29' E 000°10'0 0.0
2015-Mar-25 09:29N 49°29' E 000°10'0 0.0
2015-Mar-25 08:32N 49°29' E 000°10'0 0.0
2015-Mar-25 07:32N 49°29' E 000°10'0 0.0
2015-Mar-25 06:32N 49°29' E 000°10'0 0.0
2015-Mar-25 05:29N 49°29' E 000°10'0 0.0
2015-Mar-25 04:32N 49°29' E 000°10'0 0.0
2015-Mar-25 03:32N 49°29' E 000°10'0 0.0
2015-Mar-25 02:32N 49°29' E 000°10'0 0.0
2015-Mar-25 01:32N 49°29' E 000°10'0 0.0
2015-Mar-25 00:32N 49°29' E 000°10'0 0.0
2015-Mar-24 23:32N 49°29' E 000°10'0 0.0
2015-Mar-24 22:32N 49°29' E 000°10'0 0.0
2015-Mar-24 21:32N 49°29' E 000°10'1 1.3
2015-Mar-24 20:33N 49°28' E 000°08'7 6.7
2015-Mar-24 19:32N 49°29' W 000°02'0 0.0
2015-Mar-24 18:32N 49°29' W 000°02'0 0.0
2015-Mar-24 17:32N 49°29' W 000°02'0 0.0
2015-Mar-24 16:32N 49°29' W 000°02'0 0.1
2015-Mar-24 15:32N 49°29' W 000°02'0 0.1
2015-Mar-24 14:32N 49°29' W 000°02'0 0.1
2015-Mar-24 13:32N 49°29' W 000°02'0 0.0
2015-Mar-24 12:32N 49°29' W 000°02'0 0.0
2015-Mar-24 11:32N 49°29' W 000°02'0 0.2
2015-Mar-24 10:32N 49°29' W 000°02'0 0.0
2015-Mar-24 09:32N 49°29' W 000°02'0 0.1
2015-Mar-24 08:32N 49°29' W 000°02'0 0.2
2015-Mar-24 07:34N 49°29' W 000°02'10 9.9
2015-Mar-24 06:34N 49°37' W 000°12'1111.1
2015-Mar-24 05:33N 49°48' W 000°12'3411.2
2015-Mar-24 02:32N 50°22' W 000°07'20 9.9
2015-Mar-24 00:33N 50°32' E 000°19'9 9.1
2015-Mar-23 23:34N 50°35' E 000°33'9 9.1
2015-Mar-23 22:34N 50°41' E 000°44'1110.8
2015-Mar-23 21:33N 50°48' E 000°57'1412.7
2015-Mar-23 20:25N 50°57' E 001°14'1112.9
2015-Mar-23 19:33N 51°04' E 001°29'1111.2
2015-Mar-23 18:34N 51°12' E 001°41'9 9.0
2015-Mar-23 17:33N 51°19' E 001°50'9 8.7
2015-Mar-23 16:34N 51°26' E 001°58'8 8.3
2015-Mar-23 15:34N 51°32' E 002°06'9 8.6
2015-Mar-23 14:31N 51°39' E 002°15'2610.5
2015-Mar-23 12:03N 51°59' E 002°42'810.7
2015-Mar-23 11:16N 52°02' E 002°55'911.2
2015-Mar-23 10:26N 52°03' E 003°10'1211.3
2015-Mar-23 09:23N 52°03' E 003°29'911.0
2015-Mar-23 08:33N 52°03' E 003°44'9 9.5
2015-Mar-23 07:33N 52°01' E 003°59'1212.0
2015-Mar-23 06:33N 51°54' E 004°16'6 5.5
2015-Mar-23 05:33N 51°53' E 004°24'0 0.0
2015-Mar-23 04:33N 51°53' E 004°24'0 0.0
2015-Mar-23 03:33N 51°53' E 004°24'0 0.0
2015-Mar-23 02:33N 51°53' E 004°24'0 0.0
2015-Mar-23 01:30N 51°53' E 004°24'0 0.0
2015-Mar-23 00:33N 51°53' E 004°24'0 0.0
2015-Mar-22 23:33N 51°53' E 004°24'0 0.0
2015-Mar-22 22:33N 51°53' E 004°24'0 0.0
2015-Mar-22 21:30N 51°53' E 004°24'0 0.0
2015-Mar-22 20:33N 51°53' E 004°24'0 0.0
2015-Mar-22 19:33N 51°53' E 004°24'0 0.0
2015-Mar-22 18:33N 51°53' E 004°24'0 0.0
2015-Mar-22 17:33N 51°53' E 004°24'0 0.0
2015-Mar-22 16:33N 51°53' E 004°24'0 0.0
2015-Mar-22 15:30N 51°53' E 004°24'0 0.0
2015-Mar-22 14:33N 51°53' E 004°24'0 0.0
2015-Mar-22 13:33N 51°53' E 004°24'0 0.0
2015-Mar-22 12:33N 51°53' E 004°24'0 0.0
2015-Mar-22 11:33N 51°53' E 004°24'0 0.0
2015-Mar-22 10:30N 51°53' E 004°24'0 0.0
2015-Mar-22 09:33N 51°53' E 004°24'0 0.0
2015-Mar-22 08:33N 51°53' E 004°24'0 0.0
2015-Mar-22 07:33N 51°53' E 004°24'0 0.0
2015-Mar-22 06:33N 51°53' E 004°24'0 0.0
2015-Mar-22 05:33N 51°53' E 004°24'0 0.0
2015-Mar-22 04:33N 51°53' E 004°24'2 2.4
2015-Mar-22 03:33N 51°54' E 004°21'1110.8
2015-Mar-22 02:33N 51°59' E 004°06'1110.7
2015-Mar-22 01:33N 52°00' E 003°48'1412.0
2015-Mar-22 00:24N 51°56' E 003°27'5013.0
2015-Mar-21 20:33N 51°52' E 002°06'1313.0
2015-Mar-21 19:33N 51°49' E 001°46'8 8.0
2015-Mar-21 18:33N 51°47' E 001°33'1716.9
2015-Mar-21 17:33N 51°35' E 001°15'1818.0
2015-Mar-21 16:33N 51°29' E 000°47'1515.2
2015-Mar-21 15:33N 51°27' E 000°23'2 1.9
2015-Mar-21 14:33N 51°27' E 000°20'0 0.0
2015-Mar-21 13:32N 51°27' E 000°20'0 0.0
2015-Mar-21 12:34N 51°27' E 000°20'0 0.0
2015-Mar-21 11:32N 51°27' E 000°20'0 0.0
2015-Mar-21 10:33N 51°27' E 000°20'0 0.0
2015-Mar-21 09:33N 51°27' E 000°20'0 0.0
2015-Mar-21 08:33N 51°27' E 000°20'0 0.0
2015-Mar-21 07:33N 51°27' E 000°20'0 0.0
2015-Mar-21 06:33N 51°27' E 000°20'0 0.0
2015-Mar-21 05:34N 51°27' E 000°20'0 0.0
2015-Mar-21 04:33N 51°27' E 000°20'0 0.0
2015-Mar-21 03:33N 51°27' E 000°20'1 1.3
2015-Mar-21 02:34N 51°27' E 000°22'8 7.9
2015-Mar-21 01:33N 51°30' E 000°34'1313.0
2015-Mar-21 00:33N 51°29' E 000°54'1414.1
2015-Mar-20 23:33N 51°29' E 001°17'1111.2
2015-Mar-20 22:34N 51°24' E 001°33'10 9.6
2015-Mar-20 21:34N 51°14' E 001°37'9 9.0
2015-Mar-20 20:34N 51°05' E 001°39'1110.8
2015-Mar-20 19:33N 50°57' E 001°27'1210.7
2015-Mar-20 18:29N 50°47' E 001°21'1010.6
2015-Mar-20 17:33N 50°38' E 001°13'1211.5
2015-Mar-20 16:32N 50°31' E 000°58'1511.6
2015-Mar-20 15:14N 50°27' E 000°35'811.7
2015-Mar-20 14:32N 50°25' E 000°23'  

Dump ship's entire track history